Time;durP1;ratioP1;P1;durP2;ratioP2;P2;SDS_P1;SDS_P2;PMS_P1;PMS_P2;Temp;Humidity;BMP_temperature;BMP_pressure;BME280_temperature;BME280_humidity;BME280_pressure;Samples;Min_cycle;Max_cycle;Signal;HPM_P1;HPM_P2
2022/12/28 00:01:24;;;;;;;18.83;12.17;;;-0.20;99.90;;;;;;6286192;22;20563;-87
2022/12/28 00:03:51;;;;;;;28.23;13.47;;;-0.10;99.90;;;;;;6285096;22;20173;-88
2022/12/28 00:06:18;;;;;;;26.53;13.43;;;-0.10;99.90;;;;;;6311485;22;20145;-88
2022/12/28 00:08:44;;;;;;;23.33;12.73;;;-0.10;99.90;;;;;;6285565;22;20158;-88
2022/12/28 00:11:19;;;;;;;26.03;13.27;;;-0.10;99.90;;;;;;6285799;22;20231;-88
2022/12/28 00:13:44;;;;;;;23.50;12.67;;;-0.10;99.90;;;;;;6311815;22;20185;-88
2022/12/28 00:16:21;;;;;;;18.10;12.30;;;0.00;99.90;;;;;;6311992;22;20256;-88
2022/12/28 00:18:47;;;;;;;21.97;13.23;;;0.00;99.90;;;;;;6285625;22;20175;-87
2022/12/28 00:21:13;;;;;;;24.93;12.73;;;0.00;99.90;;;;;;6286304;22;20165;-87
2022/12/28 00:23:39;;;;;;;24.40;13.17;;;0.00;99.90;;;;;;6285896;22;20536;-88
2022/12/28 00:26:11;;;;;;;21.73;13.23;;;0.00;99.90;;;;;;6312139;22;20157;-88
2022/12/28 00:28:37;;;;;;;23.33;13.47;;;0.00;99.90;;;;;;6312031;22;20151;-87
2022/12/28 00:31:03;;;;;;;32.97;15.83;;;0.00;99.90;;;;;;6285664;22;20187;-87
2022/12/28 00:33:29;;;;;;;29.80;15.00;;;0.10;99.90;;;;;;6285613;22;20654;-87
2022/12/28 00:35:57;;;;;;;30.20;15.13;;;0.10;99.90;;;;;;6285428;22;20184;-87
2022/12/28 00:38:23;;;;;;;61.20;14.60;;;0.10;99.90;;;;;;6285473;22;20162;-87
2022/12/28 00:40:48;;;;;;;16.33;11.00;;;0.10;99.90;;;;;;6285390;22;20255;-87
2022/12/28 00:43:15;;;;;;;56.77;13.17;;;0.10;99.90;;;;;;6286029;22;20568;-87
2022/12/28 00:45:45;;;;;;;37.20;14.27;;;0.00;99.90;;;;;;6311380;22;20162;-88
2022/12/28 00:48:12;;;;;;;30.80;13.53;;;0.00;99.90;;;;;;6285835;22;20168;-87
2022/12/28 00:50:37;;;;;;;40.40;15.87;;;0.00;99.90;;;;;;6285167;22;20227;-87
2022/12/28 00:53:03;;;;;;;33.07;13.73;;;0.00;99.90;;;;;;6285441;22;20166;-87
2022/12/28 00:55:29;;;;;;;30.40;15.57;;;0.00;99.90;;;;;;6284939;22;20196;-87
2022/12/28 00:57:58;;;;;;;24.97;14.20;;;0.10;99.90;;;;;;6285559;22;20209;-88
2022/12/28 01:00:24;;;;;;;22.50;13.10;;;0.10;99.90;;;;;;6285085;22;20164;-87
2022/12/28 01:02:50;;;;;;;23.83;12.83;;;0.10;99.90;;;;;;6285393;22;20154;-87
2022/12/28 01:05:15;;;;;;;25.30;13.33;;;0.10;99.90;;;;;;6311257;22;20224;-88
2022/12/28 01:07:41;;;;;;;25.73;14.07;;;0.10;99.90;;;;;;6285120;22;20164;-88
2022/12/28 01:10:08;;;;;;;18.20;11.37;;;0.10;99.90;;;;;;6284806;22;20202;-88
2022/12/28 01:12:35;;;;;;;15.13;10.73;;;0.10;99.90;;;;;;6285461;22;20157;-88
2022/12/28 01:15:02;;;;;;;14.20;9.80;;;0.10;99.90;;;;;;6310754;22;20190;-87
2022/12/28 01:17:28;;;;;;;16.30;10.27;;;0.10;99.90;;;;;;6285198;22;20158;-87
2022/12/28 01:19:54;;;;;;;14.80;9.37;;;0.20;99.90;;;;;;6310716;22;20161;-87
2022/12/28 01:22:20;;;;;;;14.33;10.17;;;0.20;99.90;;;;;;6310816;22;20173;-87
2022/12/28 01:24:46;;;;;;;15.80;10.20;;;0.20;99.90;;;;;;6284846;22;20210;-87
2022/12/28 01:27:12;;;;;;;22.73;12.53;;;0.10;99.90;;;;;;6310725;22;20148;-87
2022/12/28 01:29:38;;;;;;;29.30;14.87;;;0.10;99.90;;;;;;6338527;22;20150;-87
2022/12/28 01:32:04;;;;;;;28.23;15.07;;;0.10;99.90;;;;;;6284613;22;20215;-87
2022/12/28 01:34:30;;;;;;;27.60;14.17;;;0.20;99.90;;;;;;6284809;22;20182;-88
2022/12/28 01:36:56;;;;;;;24.17;13.33;;;0.20;99.90;;;;;;6310628;22;20185;-88
2022/12/28 01:39:22;;;;;;;28.37;14.33;;;0.20;99.90;;;;;;6284813;22;20153;-87
2022/12/28 01:41:47;;;;;;;26.73;13.20;;;0.20;99.90;;;;;;6285316;22;20157;-88
2022/12/28 01:44:13;;;;;;;23.30;13.20;;;0.20;99.90;;;;;;6284820;22;20174;-88
2022/12/28 01:46:44;;;;;;;21.83;12.17;;;0.20;99.90;;;;;;6284779;22;20264;-88
2022/12/28 01:49:12;;;;;;;24.33;12.87;;;0.20;99.90;;;;;;6284569;22;20162;-87
2022/12/28 01:51:49;;;;;;;24.83;13.37;;;0.30;99.90;;;;;;6285006;22;20157;-86
2022/12/28 01:54:16;;;;;;;21.43;11.80;;;0.30;99.90;;;;;;6285331;22;20235;-87
2022/12/28 01:56:43;;;;;;;21.00;11.93;;;0.30;99.90;;;;;;6310817;22;20214;-87
2022/12/28 01:59:10;;;;;;;21.93;12.33;;;0.30;99.90;;;;;;6284754;22;20181;-88
2022/12/28 02:01:36;;;;;;;19.07;11.23;;;0.40;99.90;;;;;;6284712;22;20592;-87
2022/12/28 02:04:03;;;;;;;17.80;11.60;;;0.40;99.90;;;;;;6284528;22;20182;-88
2022/12/28 02:06:30;;;;;;;16.93;11.17;;;0.40;99.90;;;;;;6310213;22;20167;-88
2022/12/28 02:09:03;;;;;;;19.90;11.60;;;0.40;99.90;;;;;;6310158;22;20158;-88
2022/12/28 02:11:30;;;;;;;15.37;9.97;;;0.40;99.90;;;;;;6284396;22;20215;-87
2022/12/28 02:13:58;;;;;;;17.33;11.53;;;0.40;99.90;;;;;;6284220;22;20543;-87
2022/12/28 02:16:25;;;;;;;16.27;10.67;;;0.30;99.90;;;;;;6284519;22;20189;-87
2022/12/28 02:19:00;;;;;;;16.20;10.37;;;0.30;99.90;;;;;;6310318;22;20173;-87
2022/12/28 02:21:55;;;;;;;16.67;9.87;;;0.20;99.90;;;;;;6284436;22;20224;-87
2022/12/28 02:24:36;;;;;;;14.10;9.63;;;0.10;99.90;;;;;;6284666;22;20176;-87
2022/12/28 02:27:08;;;;;;;14.50;9.83;;;0.20;99.90;;;;;;6284875;22;20167;-87
2022/12/28 02:30:04;;;;;;;13.97;10.07;;;0.20;99.90;;;;;;6284606;22;20236;-87
2022/12/28 02:33:09;;;;;;;14.17;9.83;;;0.30;99.90;;;;;;6284766;22;20168;-87
2022/12/28 02:36:07;;;;;;;14.97;10.37;;;0.30;99.90;;;;;;6251886;22;20196;-87
2022/12/28 02:38:36;;;;;;;17.07;10.67;;;0.20;99.90;;;;;;6258754;22;20157;-88
2022/12/28 02:41:19;;;;;;;16.93;10.90;;;0.20;99.90;;;;;;6284221;22;20159;-87
2022/12/28 02:43:45;;;;;;;16.70;11.00;;;0.20;99.90;;;;;;6284246;22;20185;-88
2022/12/28 02:52:33;;;;;;;15.97;10.50;;;0.30;99.90;;;;;;6310613;22;20155;-87
2022/12/28 02:58:30;;;;;;;13.97;9.50;;;0.40;99.90;;;;;;6310021;22;20635;-88
2022/12/28 03:01:35;;;;;;;14.07;9.83;;;0.40;99.90;;;;;;6284007;22;20153;-88
2022/12/28 03:04:17;;;;;;;14.63;10.20;;;0.50;99.90;;;;;;6337370;22;20178;-88
2022/12/28 03:10:44;;;;;;;12.87;9.47;;;0.50;99.90;;;;;;6310068;22;20295;-87
2022/12/28 03:13:42;;;;;;;16.40;10.30;;;0.50;99.90;;;;;;6309920;22;20651;-87
2022/12/28 03:16:27;;;;;;;12.33;9.50;;;0.40;99.90;;;;;;6284275;22;20323;-87
2022/12/28 03:32:58;;;;;;;12.17;9.03;;;0.60;99.90;;;;;;6311151;22;20176;-88
2022/12/28 03:35:38;;;;;;;15.47;10.10;;;0.60;99.90;;;;;;6285543;22;20200;-87
2022/12/28 03:38:04;;;;;;;16.27;10.53;;;0.60;99.90;;;;;;6286141;22;20237;-87
2022/12/28 03:40:39;;;;;;;15.37;10.30;;;0.60;99.90;;;;;;6285428;22;20212;-87
2022/12/28 03:43:40;;;;;;;14.70;9.90;;;0.60;99.90;;;;;;6285881;22;20155;-87
2022/12/28 03:46:30;;;;;;;17.37;10.93;;;0.60;99.90;;;;;;6286293;22;20184;-87
2022/12/28 03:49:00;;;;;;;14.03;10.33;;;0.60;99.90;;;;;;6285465;22;20157;-88
2022/12/28 03:51:29;;;;;;;13.20;9.30;;;0.70;99.90;;;;;;6286157;22;20151;-87
2022/12/28 03:54:00;;;;;;;12.63;9.83;;;0.70;99.90;;;;;;6311954;22;20481;-87
2022/12/28 03:56:27;;;;;;;12.50;9.40;;;0.60;99.90;;;;;;6286252;22;20178;-88
2022/12/28 03:58:56;;;;;;;12.83;10.00;;;0.60;99.90;;;;;;6285769;22;20237;-87
2022/12/28 04:01:26;;;;;;;14.77;10.17;;;0.50;99.90;;;;;;6287039;22;20164;-87
2022/12/28 04:03:52;;;;;;;14.73;10.40;;;0.50;99.90;;;;;;6285521;22;20201;-87
2022/12/28 04:06:19;;;;;;;16.70;11.30;;;0.40;99.90;;;;;;6311528;22;20158;-87
2022/12/28 04:08:46;;;;;;;15.37;10.33;;;0.40;99.90;;;;;;6311439;22;20198;-87
2022/12/28 04:11:13;;;;;;;15.23;10.70;;;0.50;99.90;;;;;;6311713;22;20184;-87
2022/12/28 04:13:40;;;;;;;14.73;10.77;;;0.50;99.90;;;;;;6286214;22;20185;-87
2022/12/28 04:16:10;;;;;;;13.90;10.10;;;0.60;99.90;;;;;;6286297;22;20181;-88
2022/12/28 04:18:37;;;;;;;15.87;10.60;;;0.60;99.90;;;;;;6286428;22;20172;-87
2022/12/28 04:21:04;;;;;;;15.07;9.60;;;0.60;99.90;;;;;;6285900;22;20163;-88
2022/12/28 04:23:31;;;;;;;12.00;9.33;;;0.60;99.90;;;;;;6285808;22;20185;-88
2022/12/28 04:26:16;;;;;;;13.30;9.67;;;0.60;99.90;;;;;;6315773;22;20173;-87
2022/12/28 04:28:44;;;;;;;12.33;9.40;;;0.60;99.90;;;;;;6311286;22;20196;-88
2022/12/28 04:31:29;;;;;;;40.77;16.70;;;0.60;99.90;;;;;;6289612;22;20162;-87
2022/12/28 04:34:05;;;;;;;16.20;11.43;;;0.50;99.90;;;;;;6287630;22;20185;-88
2022/12/28 04:36:35;;;;;;;17.83;11.07;;;0.50;99.90;;;;;;6286310;22;20610;-88
2022/12/28 04:39:02;;;;;;;17.27;10.77;;;0.40;99.90;;;;;;6310669;22;20159;-88
2022/12/28 04:41:28;;;;;;;16.63;10.53;;;0.40;99.90;;;;;;6285329;22;20237;-88
2022/12/28 04:43:55;;;;;;;16.10;10.90;;;0.40;99.90;;;;;;6338823;22;20182;-87
2022/12/28 04:46:21;;;;;;;17.30;11.30;;;0.30;99.90;;;;;;6285745;22;20159;-88
2022/12/28 04:48:47;;;;;;;16.80;11.43;;;0.30;99.90;;;;;;6310714;22;20218;-87
2022/12/28 04:51:31;;;;;;;15.57;11.43;;;0.30;99.90;;;;;;6310920;22;20189;-87
2022/12/28 04:53:57;;;;;;;13.63;10.13;;;0.30;99.90;;;;;;6311272;22;20172;-87
2022/12/28 04:56:25;;;;;;;15.23;9.90;;;0.40;99.90;;;;;;6285116;22;20182;-87
2022/12/28 04:59:00;;;;;;;12.80;9.17;;;0.50;99.90;;;;;;6285233;22;20237;-88
2022/12/28 05:01:26;;;;;;;12.73;8.60;;;0.60;99.90;;;;;;6311569;22;20164;-88
2022/12/28 05:03:53;;;;;;;13.10;8.93;;;0.60;99.90;;;;;;6310920;22;20177;-88
2022/12/28 05:06:21;;;;;;;13.40;8.90;;;0.70;99.90;;;;;;6311579;22;20173;-88
2022/12/28 05:08:48;;;;;;;10.53;7.77;;;0.80;99.90;;;;;;6338286;22;20157;-88
2022/12/28 05:11:16;;;;;;;12.90;8.63;;;0.90;99.90;;;;;;6284893;22;20584;-88
2022/12/28 05:13:43;;;;;;;10.77;8.90;;;0.90;99.90;;;;;;6310665;22;20180;-88
2022/12/28 05:16:12;;;;;;;15.80;10.23;;;0.90;99.90;;;;;;6284707;22;20185;-88
2022/12/28 05:18:38;;;;;;;12.67;9.50;;;0.90;99.90;;;;;;6284846;22;20176;-88
2022/12/28 05:21:07;;;;;;;13.33;9.60;;;0.90;99.90;;;;;;6310437;22;20166;-88
2022/12/28 05:23:34;;;;;;;12.17;9.10;;;0.80;99.90;;;;;;6285213;22;20265;-88
2022/12/28 05:26:00;;;;;;;11.77;8.87;;;0.80;99.90;;;;;;6284929;22;20258;-87
2022/12/28 05:28:53;;;;;;;12.50;9.00;;;0.80;99.90;;;;;;6310317;22;20182;-87
2022/12/28 05:31:21;;;;;;;11.80;8.77;;;0.70;99.90;;;;;;6306593;22;20162;-87
2022/12/28 05:33:47;;;;;;;12.23;9.07;;;0.70;99.90;;;;;;6284706;22;20187;-87
2022/12/28 05:36:16;;;;;;;12.43;10.07;;;0.70;99.90;;;;;;6338295;22;20178;-87
2022/12/28 05:38:42;;;;;;;20.60;11.63;;;0.70;99.90;;;;;;6284555;22;20162;-86
2022/12/28 05:41:12;;;;;;;19.87;13.13;;;0.70;99.90;;;;;;6311252;22;20178;-87
2022/12/28 05:44:21;;;;;;;18.87;12.13;;;0.70;99.90;;;;;;6285061;22;20178;-87
2022/12/28 05:46:47;;;;;;;14.63;10.50;;;0.80;99.90;;;;;;6310676;22;20188;-88
2022/12/28 05:49:13;;;;;;;11.03;8.80;;;0.80;99.90;;;;;;6285071;22;20161;-88
2022/12/28 05:51:39;;;;;;;13.37;9.13;;;0.80;99.90;;;;;;6284842;22;20158;-88
2022/12/28 05:54:04;;;;;;;13.60;9.53;;;0.80;99.90;;;;;;6285062;22;20175;-88
2022/12/28 05:56:31;;;;;;;13.93;9.63;;;0.90;99.90;;;;;;6284852;22;20188;-88
2022/12/28 05:59:03;;;;;;;13.30;9.53;;;0.80;99.90;;;;;;6284531;22;20229;-88
2022/12/28 06:01:31;;;;;;;13.60;9.70;;;0.90;99.90;;;;;;6285013;22;20236;-88
2022/12/28 06:04:03;;;;;;;12.77;9.77;;;0.90;99.90;;;;;;6284784;22;20232;-87
2022/12/28 06:06:31;;;;;;;12.80;9.77;;;0.90;99.90;;;;;;6285349;22;20210;-87
2022/12/28 06:08:57;;;;;;;13.40;9.20;;;0.90;99.90;;;;;;6283470;22;20178;-87
2022/12/28 06:11:25;;;;;;;12.53;8.87;;;0.90;99.90;;;;;;6283639;22;20167;-87
2022/12/28 06:13:52;;;;;;;13.80;9.27;;;0.90;99.90;;;;;;6283695;22;20204;-87
2022/12/28 06:16:20;;;;;;;11.33;8.80;;;0.90;99.90;;;;;;6284131;22;20180;-87
2022/12/28 06:18:46;;;;;;;14.10;9.17;;;0.90;99.90;;;;;;6283741;22;20611;-88
2022/12/28 06:21:17;;;;;;;11.97;8.90;;;0.90;99.90;;;;;;6309967;22;20174;-88
2022/12/28 06:23:43;;;;;;;12.97;9.53;;;0.90;99.90;;;;;;6309828;22;20178;-87
2022/12/28 06:26:15;;;;;;;12.30;9.67;;;0.90;99.90;;;;;;6284298;22;20159;-87
2022/12/28 06:28:41;;;;;;;10.53;8.83;;;0.80;99.90;;;;;;6284158;22;20162;-87
2022/12/28 06:31:09;;;;;;;11.70;8.90;;;0.80;99.90;;;;;;6310028;22;20154;-87
2022/12/28 06:33:35;;;;;;;15.33;10.50;;;0.80;99.90;;;;;;6310056;22;20238;-88
2022/12/28 06:36:01;;;;;;;12.47;9.47;;;0.80;99.90;;;;;;6284532;22;20189;-88
2022/12/28 06:38:31;;;;;;;16.33;10.47;;;0.80;99.90;;;;;;6309709;22;20154;-87
2022/12/28 06:41:04;;;;;;;14.20;9.70;;;0.70;99.90;;;;;;6284426;22;20390;-87
2022/12/28 06:43:32;;;;;;;12.23;9.03;;;0.80;99.90;;;;;;6309805;22;20181;-88
2022/12/28 06:45:58;;;;;;;12.57;9.37;;;0.80;99.90;;;;;;6284374;22;20229;-86
2022/12/28 06:48:24;;;;;;;10.57;7.13;;;0.90;99.90;;;;;;6284214;22;20167;-88
2022/12/28 06:51:12;;;;;;;13.43;8.30;;;1.00;99.90;;;;;;6283946;22;20166;-87
2022/12/28 06:53:38;;;;;;;13.10;8.40;;;1.00;99.90;;;;;;6309879;22;20174;-87
2022/12/28 06:56:10;;;;;;;11.23;7.87;;;1.10;99.90;;;;;;6284283;22;20264;-87
2022/12/28 06:58:37;;;;;;;9.57;7.20;;;1.10;99.90;;;;;;6309926;22;20234;-87
2022/12/28 07:01:13;;;;;;;9.70;7.20;;;1.10;99.90;;;;;;6284015;22;20164;-87
2022/12/28 07:03:40;;;;;;;8.90;6.57;;;1.10;99.90;;;;;;6285478;22;20189;-87
2022/12/28 07:06:06;;;;;;;10.73;6.47;;;1.10;99.90;;;;;;6339214;22;20173;-87
2022/12/28 07:12:19;;;;;;;7.70;5.53;;;1.30;99.90;;;;;;6339859;22;20153;-87
2022/12/28 07:14:45;;;;;;;8.17;5.73;;;1.40;99.90;;;;;;6311627;22;20179;-87
2022/12/28 07:17:11;;;;;;;5.90;4.83;;;1.40;99.90;;;;;;6285456;22;20209;-87
2022/12/28 07:19:37;;;;;;;6.33;4.43;;;1.40;99.90;;;;;;6310273;22;20246;-87
2022/12/28 07:22:03;;;;;;;7.03;5.07;;;1.40;99.90;;;;;;6286258;22;20174;-87
2022/12/28 07:24:29;;;;;;;7.33;5.37;;;1.40;99.90;;;;;;6286193;22;20264;-87
2022/12/28 07:26:54;;;;;;;9.83;7.83;;;1.50;99.90;;;;;;6285999;22;20161;-88
2022/12/28 07:29:20;;;;;;;11.43;8.93;;;1.40;99.90;;;;;;6286319;22;20168;-87
2022/12/28 07:31:46;;;;;;;16.33;12.73;;;1.40;99.90;;;;;;6286000;22;20162;-88
2022/12/28 07:34:14;;;;;;;15.43;11.03;;;1.40;99.90;;;;;;6338295;22;20171;-88
2022/12/28 07:36:40;;;;;;;24.33;16.83;;;1.40;99.90;;;;;;6311523;22;20186;-87
2022/12/28 07:39:09;;;;;;;24.67;15.70;;;1.40;99.90;;;;;;6311424;22;20151;-88
2022/12/28 07:44:26;;;;;;;21.20;14.67;;;1.40;99.90;;;;;;6311463;22;20174;-88
2022/12/28 07:46:52;;;;;;;20.83;14.60;;;1.40;99.90;;;;;;6311826;22;20652;-88
2022/12/28 07:49:18;;;;;;;16.63;12.10;;;1.40;99.90;;;;;;6285661;22;20159;-88
2022/12/28 07:51:44;;;;;;;15.07;10.90;;;1.40;99.90;;;;;;6311495;22;20155;-88
2022/12/28 07:54:09;;;;;;;13.33;10.10;;;1.40;99.90;;;;;;6285598;22;20183;-88
2022/12/28 07:56:35;;;;;;;16.20;10.53;;;1.40;99.90;;;;;;6285845;22;20188;-88
2022/12/28 07:59:03;;;;;;;12.03;8.10;;;1.40;99.90;;;;;;6286010;22;20153;-88
2022/12/28 08:01:31;;;;;;;12.50;9.20;;;1.40;99.90;;;;;;6311656;22;20160;-88
2022/12/28 08:03:59;;;;;;;11.03;7.60;;;1.50;99.90;;;;;;6285630;22;20179;-88
2022/12/28 08:06:26;;;;;;;11.03;7.63;;;1.50;99.90;;;;;;6283823;22;20169;-88
2022/12/28 08:08:55;;;;;;;8.63;6.67;;;1.60;99.90;;;;;;6310942;22;20159;-87
2022/12/28 08:11:23;;;;;;;10.23;6.70;;;1.70;99.90;;;;;;6286334;22;20159;-88
2022/12/28 08:13:50;;;;;;;11.90;6.77;;;1.80;99.90;;;;;;6311482;22;20189;-88
2022/12/28 08:16:18;;;;;;;8.80;6.07;;;1.80;99.90;;;;;;6285844;22;20193;-88
2022/12/28 08:18:45;;;;;;;8.40;6.20;;;1.90;99.90;;;;;;6285734;22;20190;-87
2022/12/28 08:21:20;;;;;;;8.03;5.37;;;2.00;99.90;;;;;;6311104;22;20170;-88
2022/12/28 08:23:46;;;;;;;6.60;5.30;;;2.00;99.90;;;;;;6285723;22;20177;-88
2022/12/28 08:26:14;;;;;;;7.93;5.70;;;2.00;99.90;;;;;;6285375;22;20246;-88
2022/12/28 08:28:41;;;;;;;6.20;5.13;;;2.10;99.90;;;;;;6285732;22;20157;-88
2022/12/28 08:31:10;;;;;;;7.20;5.10;;;2.10;99.90;;;;;;6285273;22;20189;-88
2022/12/28 08:33:36;;;;;;;5.83;4.70;;;2.20;99.90;;;;;;6285562;22;20175;-88
2022/12/28 08:36:06;;;;;;;6.57;5.00;;;2.20;99.90;;;;;;6285095;22;20175;-89
2022/12/28 08:38:41;;;;;;;6.30;5.10;;;2.30;99.90;;;;;;6285381;22;20212;-89
2022/12/28 08:41:10;;;;;;;6.83;4.90;;;2.40;99.90;;;;;;6285816;22;20151;-90
2022/12/28 08:43:36;;;;;;;6.00;4.70;;;2.40;99.90;;;;;;6285064;22;20171;-90
2022/12/28 08:46:05;;;;;;;6.93;4.90;;;2.40;99.90;;;;;;6311459;22;20148;-90
2022/12/28 08:48:32;;;;;;;6.90;4.93;;;2.40;99.90;;;;;;6285738;22;20170;-90
2022/12/28 08:51:11;;;;;;;6.67;5.40;;;2.40;99.90;;;;;;6285586;22;20163;-90
2022/12/28 08:53:38;;;;;;;9.73;6.10;;;2.50;99.90;;;;;;6285449;22;20208;-90
2022/12/28 08:56:14;;;;;;;9.53;6.70;;;2.60;99.90;;;;;;6311116;22;20199;-89
2022/12/28 08:58:42;;;;;;;10.17;6.97;;;2.60;99.90;;;;;;6285010;22;20200;-90
2022/12/28 09:01:19;;;;;;;10.90;7.33;;;2.60;99.90;;;;;;6285533;22;20155;-89
2022/12/28 09:03:47;;;;;;;8.37;7.13;;;2.70;99.90;;;;;;6285044;22;20179;-89
2022/12/28 09:06:18;;;;;;;10.13;7.20;;;2.80;99.90;;;;;;6310717;22;20601;-89
2022/12/28 09:08:47;;;;;;;7.67;5.50;;;2.80;99.90;;;;;;6285054;22;20205;-90
2022/12/28 09:11:34;;;;;;;7.50;5.23;;;2.90;99.90;;;;;;6286179;22;20205;-90
2022/12/28 09:14:02;;;;;;;8.87;5.90;;;3.00;99.90;;;;;;6285332;22;20262;-90
2022/12/28 09:16:28;;;;;;;6.30;5.07;;;3.00;99.90;;;;;;6310906;22;20190;-90
2022/12/28 09:19:25;;;;;;;5.30;4.30;;;3.10;99.90;;;;;;6311671;22;20151;-90
2022/12/28 09:21:54;;;;;;;9.80;4.53;;;3.10;99.90;;;;;;6284906;22;20220;-90
2022/12/28 09:24:39;;;;;;;7.70;5.80;;;3.20;99.90;;;;;;6285732;22;20195;-90
2022/12/28 09:27:05;;;;;;;8.00;5.73;;;3.20;99.90;;;;;;6285704;22;20155;-90
2022/12/28 09:29:54;;;;;;;7.90;5.93;;;3.30;99.90;;;;;;6285489;22;20156;-88
2022/12/28 09:32:32;;;;;;;8.60;6.97;;;3.30;99.90;;;;;;6285970;22;20155;-88
2022/12/28 09:34:58;;;;;;;10.77;7.63;;;3.20;99.90;;;;;;6285150;22;20309;-88
2022/12/28 09:37:24;;;;;;;11.87;6.87;;;3.20;99.90;;;;;;6285184;22;20260;-88
2022/12/28 09:39:50;;;;;;;12.47;7.67;;;3.20;99.90;;;;;;6311504;22;20596;-89
2022/12/28 09:42:27;;;;;;;8.73;6.30;;;3.30;99.90;;;;;;6285835;22;20160;-88
2022/12/28 09:44:58;;;;;;;10.17;6.37;;;3.40;99.90;;;;;;6289167;22;20232;-86
2022/12/28 09:47:27;;;;;;;8.80;6.73;;;3.40;99.90;;;;;;6288631;22;20224;-86
2022/12/28 09:50:17;;;;;;;8.23;5.37;;;3.50;99.90;;;;;;6312605;22;20159;-86
2022/12/28 09:53:20;;;;;;;7.17;5.57;;;3.70;99.90;;;;;;6310385;22;20182;-86
2022/12/28 09:56:21;;;;;;;11.50;8.33;;;3.80;99.90;;;;;;6262171;22;20194;-36
2022/12/28 09:58:48;;;;;;;8.43;6.07;;;3.90;99.90;;;;;;6282644;22;20174;-36
2022/12/28 10:01:16;;;;;;;7.53;5.87;;;4.00;99.90;;;;;;6337844;22;20143;-36
2022/12/28 10:03:44;;;;;;;8.73;5.93;;;4.10;99.90;;;;;;6284649;22;20151;-36
2022/12/28 10:06:16;;;;;;;9.27;6.00;;;4.20;99.90;;;;;;6340432;22;20234;-36
2022/12/28 10:08:51;;;;;;;10.13;6.53;;;4.30;99.90;;;;;;6309546;22;20640;-37
2022/12/28 10:11:24;;;;;;;12.67;8.40;;;4.50;99.90;;;;;;6307068;22;20166;-39
2022/12/28 10:13:56;;;;;;;9.50;7.50;;;4.60;99.90;;;;;;6335256;22;20159;-36
2022/12/28 10:16:24;;;;;;;14.63;9.90;;;4.80;99.90;;;;;;6313036;22;20217;-36
2022/12/28 10:18:50;;;;;;;9.80;7.50;;;4.90;99.90;;;;;;6307449;22;20175;-36
2022/12/28 10:21:19;;;;;;;10.57;7.43;;;5.00;99.90;;;;;;6282160;22;20230;-37
2022/12/28 10:23:47;;;;;;;7.97;6.43;;;5.10;99.90;;;;;;6307797;22;20157;-37
2022/12/28 10:26:16;;;;;;;9.13;5.70;;;5.30;99.90;;;;;;6281580;22;20245;-36
2022/12/28 10:28:59;;;;;;;16.57;12.27;;;5.30;99.90;;;;;;6289443;22;20214;-36
2022/12/28 10:31:39;;;;;;;8.50;6.80;;;5.40;99.90;;;;;;6343904;22;20141;-36
2022/12/28 10:34:19;;;;;;;6.37;4.33;;;5.60;99.90;;;;;;6307179;22;20168;-36
2022/12/28 10:36:46;;;;;;;5.67;3.90;;;5.70;99.90;;;;;;6308591;22;20198;-36
2022/12/28 10:39:31;;;;;;;5.63;3.63;;;5.80;99.90;;;;;;6309630;22;20182;-36
2022/12/28 10:42:02;;;;;;;6.67;3.40;;;5.90;99.90;;;;;;6319586;22;20160;-36
2022/12/28 10:44:34;;;;;;;5.30;3.10;;;6.00;99.90;;;;;;6283934;22;20160;-36
2022/12/28 10:47:07;;;;;;;4.60;2.53;;;6.00;99.90;;;;;;6310025;22;20143;-36
2022/12/28 10:49:35;;;;;;;5.43;3.03;;;6.20;99.90;;;;;;6283906;22;20185;-37
2022/12/28 10:52:13;;;;;;;6.37;3.93;;;6.40;99.90;;;;;;6288173;22;20181;-37
2022/12/28 10:54:39;;;;;;;9.07;5.03;;;6.50;99.90;;;;;;6286344;22;20186;-38
2022/12/28 10:57:16;;;;;;;6.17;3.27;;;6.70;99.90;;;;;;6286548;22;20182;-36
2022/12/28 10:59:46;;;;;;;5.23;2.93;;;6.80;99.90;;;;;;6311213;22;20193;-36
2022/12/28 11:02:33;;;;;;;5.17;3.00;;;6.90;99.90;;;;;;6309994;22;20155;-36
2022/12/28 11:05:03;;;;;;;5.17;4.10;;;6.90;99.90;;;;;;6309093;22;20143;-36
2022/12/28 11:07:38;;;;;;;6.30;3.47;;;6.90;99.90;;;;;;6309912;22;20151;-36
2022/12/28 11:10:29;;;;;;;6.70;2.80;;;7.00;99.90;;;;;;6309704;22;20174;-37
2022/12/28 11:13:02;;;;;;;4.77;2.90;;;7.00;99.90;;;;;;6316232;22;20147;-35
2022/12/28 11:15:32;;;;;;;4.97;2.90;;;7.00;99.90;;;;;;6260963;22;20166;-36
2022/12/28 11:17:59;;;;;;;5.30;2.73;;;7.00;99.90;;;;;;6314421;22;20182;-37
2022/12/28 11:20:43;;;;;;;3.27;1.90;;;7.10;99.90;;;;;;6325113;22;20264;-34
2022/12/28 11:23:23;;;;;;;3.40;2.00;;;7.10;99.90;;;;;;6320838;22;20143;-38
2022/12/28 11:25:50;;;;;;;5.17;2.83;;;7.20;99.90;;;;;;6344594;22;20201;-37
2022/12/28 11:28:19;;;;;;;5.80;3.17;;;7.20;99.90;;;;;;6314153;22;20156;-40
2022/12/28 11:30:47;;;;;;;6.83;3.60;;;7.30;99.90;;;;;;6281985;22;20180;-40
2022/12/28 11:33:38;;;;;;;5.97;4.10;;;7.40;99.90;;;;;;6282495;22;20159;-37
2022/12/28 11:36:08;;;;;;;8.70;5.30;;;7.50;99.90;;;;;;6354676;22;20186;-39
2022/12/28 11:38:47;;;;;;;16.63;8.10;;;7.50;99.90;;;;;;6326221;22;20158;-40
2022/12/28 11:41:29;;;;;;;4.87;3.20;;;7.60;99.90;;;;;;6332669;22;20151;-35
2022/12/28 11:44:01;;;;;;;6.37;4.27;;;7.80;99.90;;;;;;6320424;22;20190;-36
2022/12/28 11:46:34;;;;;;;4.60;3.17;;;7.80;99.90;;;;;;6325928;22;20210;-36
2022/12/28 11:49:28;;;;;;;3.93;2.67;;;7.90;99.90;;;;;;6323614;22;20238;-36
2022/12/28 11:52:17;;;;;;;5.03;3.80;;;8.00;99.90;;;;;;6292362;22;20158;-38
2022/12/28 11:54:57;;;;;;;6.93;4.03;;;8.00;99.90;;;;;;6308879;22;20162;-39
2022/12/28 11:57:39;;;;;;;4.13;3.10;;;8.10;99.90;;;;;;6309581;22;20178;-39
2022/12/28 12:00:37;;;;;;;5.83;3.17;;;8.20;99.90;;;;;;6309481;22;20175;-37
2022/12/28 12:03:03;;;;;;;4.40;2.83;;;8.30;99.90;;;;;;6325714;22;20151;-37
2022/12/28 12:05:35;;;;;;;5.97;2.70;;;8.40;99.90;;;;;;6283604;22;20155;-38
2022/12/28 12:08:21;;;;;;;2.73;1.90;;;8.60;99.90;;;;;;6283082;22;20163;-38
2022/12/28 12:11:08;;;;;;;5.97;3.50;;;8.80;99.90;;;;;;6282546;22;20186;-37
2022/12/28 12:13:42;;;;;;;2.57;2.20;;;8.90;99.90;;;;;;6283078;22;20155;-37
2022/12/28 12:16:15;;;;;;;4.60;2.67;;;9.10;99.90;;;;;;6283782;22;20310;-38
2022/12/28 12:18:51;;;;;;;4.30;2.10;;;9.20;99.90;;;;;;6308927;22;20150;-38
2022/12/28 12:21:39;;;;;;;3.33;2.00;;;9.20;99.90;;;;;;6283030;22;20151;-40
2022/12/28 12:24:26;;;;;;;2.27;1.53;;;9.10;99.90;;;;;;6307922;22;20181;-41
2022/12/28 12:26:58;;;;;;;2.47;1.37;;;9.30;99.90;;;;;;6309366;22;20174;-38
2022/12/28 12:29:30;;;;;;;3.87;1.90;;;9.40;99.90;;;;;;6309049;22;20186;-38
2022/12/28 12:32:05;;;;;;;4.07;1.80;;;9.50;99.90;;;;;;6309096;22;20168;-38
2022/12/28 12:34:43;;;;;;;4.93;1.70;;;9.70;99.90;;;;;;6283034;22;20151;-39
2022/12/28 12:37:43;;;;;;;4.23;1.53;;;9.80;99.90;;;;;;6308614;22;20173;-38
2022/12/28 12:40:32;;;;;;;3.87;2.30;;;9.90;99.90;;;;;;6308343;22;20193;-38
2022/12/28 12:43:17;;;;;;;3.53;1.60;;;10.00;99.90;;;;;;6237473;22;20155;-37
2022/12/28 12:46:18;;;;;;;5.00;2.23;;;10.20;99.90;;;;;;6336242;22;20140;-38
2022/12/28 12:49:28;;;;;;;2.23;1.80;;;10.20;99.90;;;;;;6335818;22;20144;-38
2022/12/28 12:52:06;;;;;;;3.90;2.10;;;10.10;99.90;;;;;;6334919;22;20166;-38
2022/12/28 12:55:06;;;;;;;3.20;2.20;;;10.00;99.90;;;;;;6281241;22;20143;-40
2022/12/28 12:57:35;;;;;;;2.87;1.93;;;9.90;99.90;;;;;;6308813;22;20184;-38
2022/12/28 13:00:04;;;;;;;4.10;2.20;;;9.70;99.90;;;;;;6308184;22;20176;-37
2022/12/28 13:02:48;;;;;;;2.23;1.80;;;9.60;99.90;;;;;;6282715;22;20251;-36
2022/12/28 13:05:19;;;;;;;10.07;5.90;;;9.40;99.90;;;;;;6307284;22;20139;-37
2022/12/28 13:07:45;;;;;;;2.73;1.93;;;9.30;99.90;;;;;;6308770;22;20143;-35
2022/12/28 13:10:26;;;;;;;4.13;2.20;;;9.20;99.90;;;;;;6307574;22;20236;-36
2022/12/28 13:12:57;;;;;;;5.23;3.10;;;9.20;99.90;;;;;;6308381;22;20149;-38
2022/12/28 13:15:23;;;;;;;4.27;2.53;;;9.10;99.90;;;;;;6306778;22;20140;-37
2022/12/28 13:18:14;;;;;;;5.50;2.60;;;9.00;99.90;;;;;;6306695;22;20285;-37
2022/12/28 13:20:40;;;;;;;4.53;2.47;;;9.00;99.90;;;;;;6281298;22;20174;-36
2022/12/28 13:23:15;;;;;;;3.70;2.00;;;8.90;99.90;;;;;;6310959;22;20155;-40
2022/12/28 13:25:46;;;;;;;3.80;2.20;;;8.90;99.90;;;;;;6282322;22;20159;-41
2022/12/28 13:28:27;;;;;;;3.40;2.10;;;8.90;99.90;;;;;;6307111;22;20158;-39
2022/12/28 13:31:22;;;;;;;2.73;1.70;;;8.80;99.90;;;;;;6307574;22;20192;-40
2022/12/28 13:33:59;;;;;;;4.17;2.23;;;8.70;99.90;;;;;;6307849;22;20189;-40
2022/12/28 13:36:25;;;;;;;5.37;3.10;;;8.70;99.90;;;;;;6306989;22;20174;-42
2022/12/28 13:39:10;;;;;;;14.83;5.53;;;8.70;99.90;;;;;;6281209;22;20201;-37
2022/12/28 13:41:41;;;;;;;7.27;4.20;;;8.60;99.90;;;;;;6306874;22;20269;-40
2022/12/28 13:44:28;;;;;;;7.23;3.83;;;8.60;99.90;;;;;;6308224;22;20577;-41
2022/12/28 13:47:21;;;;;;;9.60;5.57;;;8.50;99.90;;;;;;6308603;22;20147;-38
2022/12/28 13:50:02;;;;;;;11.50;7.43;;;8.50;99.90;;;;;;6282191;22;20183;-40